sensor_id;sensor_type;location;lat;lon;timestamp;P1;durP1;ratioP1;P2;durP2;ratioP2
595;SDS011;19946;49.306;11.350;2022-11-25T00:00:16;381.63;;;365.43;;
595;SDS011;19946;49.306;11.350;2022-11-25T00:03:17;302.93;;;290.33;;
595;SDS011;19946;49.306;11.350;2022-11-25T00:06:19;362.13;;;346.50;;
595;SDS011;19946;49.306;11.350;2022-11-25T00:09:26;352.47;;;337.23;;
595;SDS011;19946;49.306;11.350;2022-11-25T00:12:26;357.73;;;342.20;;
595;SDS011;19946;49.306;11.350;2022-11-25T00:15:27;492.00;;;470.90;;
595;SDS011;19946;49.306;11.350;2022-11-25T00:18:27;632.47;;;606.67;;
595;SDS011;19946;49.306;11.350;2022-11-25T00:21:30;582.10;;;558.20;;
595;SDS011;19946;49.306;11.350;2022-11-25T00:24:32;671.30;;;644.07;;
595;SDS011;19946;49.306;11.350;2022-11-25T00:27:32;610.73;;;585.73;;
595;SDS011;19946;49.306;11.350;2022-11-25T00:30:41;520.97;;;499.33;;
595;SDS011;19946;49.306;11.350;2022-11-25T00:33:41;491.40;;;470.97;;
595;SDS011;19946;49.306;11.350;2022-11-25T00:36:42;494.30;;;473.87;;
595;SDS011;19946;49.306;11.350;2022-11-25T00:39:42;547.93;;;525.83;;
595;SDS011;19946;49.306;11.350;2022-11-25T00:42:42;407.37;;;390.17;;
595;SDS011;19946;49.306;11.350;2022-11-25T00:46:01;613.53;;;588.83;;
595;SDS011;19946;49.306;11.350;2022-11-25T00:49:02;656.07;;;630.43;;
595;SDS011;19946;49.306;11.350;2022-11-25T00:55:45;637.33;;;612.73;;
595;SDS011;19946;49.306;11.350;2022-11-25T00:59:04;732.43;;;705.03;;
595;SDS011;19946;49.306;11.350;2022-11-25T01:02:09;782.53;;;753.53;;
595;SDS011;19946;49.306;11.350;2022-11-25T01:05:11;725.93;;;699.93;;
595;SDS011;19946;49.306;11.350;2022-11-25T01:08:11;652.03;;;628.73;;
595;SDS011;19946;49.306;11.350;2022-11-25T01:11:13;643.60;;;620.07;;
595;SDS011;19946;49.306;11.350;2022-11-25T01:14:15;705.07;;;679.57;;
595;SDS011;19946;49.306;11.350;2022-11-25T01:17:15;638.30;;;615.40;;
595;SDS011;19946;49.306;11.350;2022-11-25T01:23:19;433.13;;;416.23;;
595;SDS011;19946;49.306;11.350;2022-11-25T01:26:20;413.27;;;396.63;;
595;SDS011;19946;49.306;11.350;2022-11-25T01:29:22;400.40;;;384.13;;
595;SDS011;19946;49.306;11.350;2022-11-25T01:32:22;372.20;;;357.07;;
595;SDS011;19946;49.306;11.350;2022-11-25T01:35:24;424.07;;;406.80;;
595;SDS011;19946;49.306;11.350;2022-11-25T01:38:33;404.50;;;388.40;;
595;SDS011;19946;49.306;11.350;2022-11-25T01:41:34;424.63;;;407.40;;
595;SDS011;19946;49.306;11.350;2022-11-25T01:44:35;272.00;;;261.70;;
595;SDS011;19946;49.306;11.350;2022-11-25T01:51:39;395.47;;;379.87;;
595;SDS011;19946;49.306;11.350;2022-11-25T01:54:48;579.43;;;557.33;;
595;SDS011;19946;49.306;11.350;2022-11-25T01:57:56;706.00;;;679.70;;
595;SDS011;19946;49.306;11.350;2022-11-25T02:01:33;757.97;;;730.10;;
595;SDS011;19946;49.306;11.350;2022-11-25T02:08:36;721.73;;;695.43;;
595;SDS011;19946;49.306;11.350;2022-11-25T02:11:38;728.07;;;701.37;;
595;SDS011;19946;49.306;11.350;2022-11-25T02:14:42;780.23;;;750.77;;
595;SDS011;19946;49.306;11.350;2022-11-25T02:17:57;753.40;;;725.17;;
595;SDS011;19946;49.306;11.350;2022-11-25T02:20:57;731.00;;;704.00;;
595;SDS011;19946;49.306;11.350;2022-11-25T02:24:03;704.30;;;678.80;;
595;SDS011;19946;49.306;11.350;2022-11-25T02:27:24;710.33;;;684.63;;
595;SDS011;19946;49.306;11.350;2022-11-25T02:30:24;700.83;;;675.53;;
595;SDS011;19946;49.306;11.350;2022-11-25T02:33:25;707.53;;;682.00;;
595;SDS011;19946;49.306;11.350;2022-11-25T02:36:29;681.93;;;657.53;;
595;SDS011;19946;49.306;11.350;2022-11-25T02:42:49;614.40;;;593.30;;
595;SDS011;19946;49.306;11.350;2022-11-25T02:45:54;624.33;;;602.73;;
595;SDS011;19946;49.306;11.350;2022-11-25T02:49:00;651.20;;;628.40;;
595;SDS011;19946;49.306;11.350;2022-11-25T02:52:02;658.53;;;635.43;;
595;SDS011;19946;49.306;11.350;2022-11-25T02:55:02;671.00;;;647.50;;
595;SDS011;19946;49.306;11.350;2022-11-25T03:17:57;560.47;;;541.53;;
595;SDS011;19946;49.306;11.350;2022-11-25T03:20:58;585.97;;;565.87;;
595;SDS011;19946;49.306;11.350;2022-11-25T03:23:59;607.60;;;586.80;;
595;SDS011;19946;49.306;11.350;2022-11-25T03:26:59;636.37;;;614.43;;
595;SDS011;19946;49.306;11.350;2022-11-25T03:33:29;679.73;;;655.83;;
595;SDS011;19946;49.306;11.350;2022-11-25T03:36:29;620.03;;;598.43;;
595;SDS011;19946;49.306;11.350;2022-11-25T03:39:30;654.37;;;631.47;;
595;SDS011;19946;49.306;11.350;2022-11-25T03:42:31;615.00;;;593.90;;
595;SDS011;19946;49.306;11.350;2022-11-25T03:45:31;635.23;;;613.53;;
595;SDS011;19946;49.306;11.350;2022-11-25T03:48:35;639.10;;;617.23;;
595;SDS011;19946;49.306;11.350;2022-11-25T03:55:08;536.23;;;517.40;;
595;SDS011;19946;49.306;11.350;2022-11-25T03:58:10;627.07;;;604.77;;
595;SDS011;19946;49.306;11.350;2022-11-25T04:01:10;668.20;;;644.50;;
595;SDS011;19946;49.306;11.350;2022-11-25T04:04:11;610.87;;;589.00;;
595;SDS011;19946;49.306;11.350;2022-11-25T04:07:12;553.30;;;533.33;;
595;SDS011;19946;49.306;11.350;2022-11-25T04:10:21;648.93;;;625.40;;
595;SDS011;19946;49.306;11.350;2022-11-25T04:13:21;657.33;;;633.27;;
595;SDS011;19946;49.306;11.350;2022-11-25T04:16:24;700.50;;;674.67;;
595;SDS011;19946;49.306;11.350;2022-11-25T04:19:26;681.23;;;656.33;;
595;SDS011;19946;49.306;11.350;2022-11-25T04:22:27;745.27;;;717.33;;
595;SDS011;19946;49.306;11.350;2022-11-25T04:25:27;793.47;;;763.27;;
595;SDS011;19946;49.306;11.350;2022-11-25T04:28:28;736.80;;;709.70;;
595;SDS011;19946;49.306;11.350;2022-11-25T04:34:51;698.90;;;673.43;;
595;SDS011;19946;49.306;11.350;2022-11-25T04:38:11;678.50;;;654.00;;
595;SDS011;19946;49.306;11.350;2022-11-25T04:41:12;673.33;;;649.43;;
595;SDS011;19946;49.306;11.350;2022-11-25T04:44:16;673.47;;;649.40;;
595;SDS011;19946;49.306;11.350;2022-11-25T04:47:16;681.17;;;656.77;;
595;SDS011;19946;49.306;11.350;2022-11-25T04:50:18;657.70;;;634.33;;
595;SDS011;19946;49.306;11.350;2022-11-25T04:57:01;719.70;;;693.60;;
595;SDS011;19946;49.306;11.350;2022-11-25T05:00:02;689.97;;;665.43;;
595;SDS011;19946;49.306;11.350;2022-11-25T05:03:08;533.10;;;513.53;;
595;SDS011;19946;49.306;11.350;2022-11-25T05:06:11;514.07;;;494.93;;
595;SDS011;19946;49.306;11.350;2022-11-25T05:09:11;555.37;;;534.73;;
595;SDS011;19946;49.306;11.350;2022-11-25T05:12:15;686.97;;;661.53;;
595;SDS011;19946;49.306;11.350;2022-11-25T05:15:17;713.47;;;686.83;;
595;SDS011;19946;49.306;11.350;2022-11-25T05:18:20;673.50;;;648.60;;
595;SDS011;19946;49.306;11.350;2022-11-25T05:21:22;738.10;;;710.63;;
595;SDS011;19946;49.306;11.350;2022-11-25T05:24:23;749.13;;;721.53;;
595;SDS011;19946;49.306;11.350;2022-11-25T05:30:55;803.67;;;773.23;;
595;SDS011;19946;49.306;11.350;2022-11-25T05:33:58;816.77;;;786.00;;
595;SDS011;19946;49.306;11.350;2022-11-25T05:37:00;755.93;;;728.00;;
595;SDS011;19946;49.306;11.350;2022-11-25T05:40:02;764.80;;;736.70;;
595;SDS011;19946;49.306;11.350;2022-11-25T05:43:18;728.03;;;701.60;;
595;SDS011;19946;49.306;11.350;2022-11-25T05:46:18;783.50;;;754.13;;
595;SDS011;19946;49.306;11.350;2022-11-25T05:49:23;778.37;;;749.33;;
595;SDS011;19946;49.306;11.350;2022-11-25T05:52:24;769.00;;;740.50;;
595;SDS011;19946;49.306;11.350;2022-11-25T05:55:30;752.70;;;724.90;;
595;SDS011;19946;49.306;11.350;2022-11-25T05:58:49;751.33;;;724.13;;
595;SDS011;19946;49.306;11.350;2022-11-25T06:01:53;431.13;;;415.33;;
595;SDS011;19946;49.306;11.350;2022-11-25T06:04:54;391.23;;;376.53;;
595;SDS011;19946;49.306;11.350;2022-11-25T06:07:54;548.33;;;528.13;;
595;SDS011;19946;49.306;11.350;2022-11-25T06:11:13;696.30;;;671.00;;
595;SDS011;19946;49.306;11.350;2022-11-25T06:14:14;729.83;;;703.07;;
595;SDS011;19946;49.306;11.350;2022-11-25T06:17:17;691.60;;;666.60;;
595;SDS011;19946;49.306;11.350;2022-11-25T06:20:38;685.43;;;661.50;;
595;SDS011;19946;49.306;11.350;2022-11-25T06:23:38;788.80;;;760.77;;
595;SDS011;19946;49.306;11.350;2022-11-25T06:26:39;778.20;;;750.87;;
595;SDS011;19946;49.306;11.350;2022-11-25T06:36:21;744.43;;;718.60;;
595;SDS011;19946;49.306;11.350;2022-11-25T06:39:22;736.23;;;710.80;;
595;SDS011;19946;49.306;11.350;2022-11-25T06:49:08;655.90;;;633.50;;
595;SDS011;19946;49.306;11.350;2022-11-25T06:52:09;674.17;;;650.63;;
595;SDS011;19946;49.306;11.350;2022-11-25T06:55:12;648.70;;;626.13;;
595;SDS011;19946;49.306;11.350;2022-11-25T06:58:13;639.10;;;616.50;;
595;SDS011;19946;49.306;11.350;2022-11-25T07:01:14;649.97;;;626.90;;
595;SDS011;19946;49.306;11.350;2022-11-25T07:04:25;648.17;;;625.17;;
595;SDS011;19946;49.306;11.350;2022-11-25T07:07:28;688.47;;;663.60;;
595;SDS011;19946;49.306;11.350;2022-11-25T07:10:28;634.77;;;612.37;;
595;SDS011;19946;49.306;11.350;2022-11-25T07:13:29;620.37;;;597.97;;
595;SDS011;19946;49.306;11.350;2022-11-25T07:16:29;593.63;;;572.03;;
595;SDS011;19946;49.306;11.350;2022-11-25T07:19:30;662.37;;;638.37;;
595;SDS011;19946;49.306;11.350;2022-11-25T07:22:34;682.60;;;657.70;;
595;SDS011;19946;49.306;11.350;2022-11-25T07:25:35;689.10;;;663.53;;
595;SDS011;19946;49.306;11.350;2022-11-25T08:04:41;697.27;;;671.17;;
595;SDS011;19946;49.306;11.350;2022-11-25T08:07:54;594.33;;;572.10;;
595;SDS011;19946;49.306;11.350;2022-11-25T08:10:54;591.37;;;569.07;;
595;SDS011;19946;49.306;11.350;2022-11-25T08:22:39;381.47;;;366.23;;
595;SDS011;19946;49.306;11.350;2022-11-25T08:30:16;459.63;;;441.37;;
595;SDS011;19946;49.306;11.350;2022-11-25T08:40:15;328.97;;;316.10;;
595;SDS011;19946;49.306;11.350;2022-11-25T08:43:16;285.70;;;274.30;;
595;SDS011;19946;49.306;11.350;2022-11-25T09:02:42;38.20;;;35.90;;
595;SDS011;19946;49.306;11.350;2022-11-25T09:05:45;34.00;;;31.90;;
595;SDS011;19946;49.306;11.350;2022-11-25T09:08:46;36.00;;;33.70;;
595;SDS011;19946;49.306;11.350;2022-11-25T09:15:02;31.27;;;29.27;;
595;SDS011;19946;49.306;11.350;2022-11-25T09:18:13;30.07;;;28.17;;
595;SDS011;19946;49.306;11.350;2022-11-25T09:24:34;28.50;;;26.70;;
595;SDS011;19946;49.306;11.350;2022-11-25T09:27:35;29.13;;;27.23;;
595;SDS011;19946;49.306;11.350;2022-11-25T09:30:35;28.03;;;26.23;;
595;SDS011;19946;49.306;11.350;2022-11-25T09:33:38;29.70;;;27.90;;
595;SDS011;19946;49.306;11.350;2022-11-25T09:40:20;30.13;;;28.23;;
595;SDS011;19946;49.306;11.350;2022-11-25T09:44:00;29.20;;;27.30;;
595;SDS011;19946;49.306;11.350;2022-11-25T09:47:36;30.27;;;28.37;;
595;SDS011;19946;49.306;11.350;2022-11-25T09:54:10;29.20;;;27.30;;
595;SDS011;19946;49.306;11.350;2022-11-25T10:01:03;27.30;;;25.60;;
595;SDS011;19946;49.306;11.350;2022-11-25T10:04:25;27.03;;;25.33;;
595;SDS011;19946;49.306;11.350;2022-11-25T10:07:50;27.23;;;25.53;;
595;SDS011;19946;49.306;11.350;2022-11-25T10:14:25;27.83;;;26.13;;
595;SDS011;19946;49.306;11.350;2022-11-25T10:17:44;26.83;;;25.23;;
595;SDS011;19946;49.306;11.350;2022-11-25T10:20:50;27.40;;;25.70;;
595;SDS011;19946;49.306;11.350;2022-11-25T10:23:53;36.80;;;34.70;;
595;SDS011;19946;49.306;11.350;2022-11-25T10:27:00;29.30;;;27.40;;
595;SDS011;19946;49.306;11.350;2022-11-25T10:30:20;37.17;;;34.97;;
595;SDS011;19946;49.306;11.350;2022-11-25T10:37:20;32.80;;;30.70;;
595;SDS011;19946;49.306;11.350;2022-11-25T10:40:28;33.53;;;31.33;;
595;SDS011;19946;49.306;11.350;2022-11-25T10:43:32;31.80;;;29.60;;
595;SDS011;19946;49.306;11.350;2022-11-25T10:46:49;33.53;;;31.23;;
595;SDS011;19946;49.306;11.350;2022-11-25T10:53:32;33.70;;;31.40;;
595;SDS011;19946;49.306;11.350;2022-11-25T10:56:40;59.63;;;56.60;;
595;SDS011;19946;49.306;11.350;2022-11-25T10:59:54;36.30;;;34.00;;
595;SDS011;19946;49.306;11.350;2022-11-25T11:02:57;36.70;;;34.40;;
595;SDS011;19946;49.306;11.350;2022-11-25T11:06:01;38.47;;;36.07;;
595;SDS011;19946;49.306;11.350;2022-11-25T11:17:00;45.00;;;42.67;;
595;SDS011;19946;49.306;11.350;2022-11-25T11:26:27;31.33;;;29.43;;
595;SDS011;19946;49.306;11.350;2022-11-25T11:29:32;32.10;;;30.10;;
595;SDS011;19946;49.306;11.350;2022-11-25T11:39:31;31.77;;;29.87;;
595;SDS011;19946;49.306;11.350;2022-11-25T11:50:16;34.80;;;32.70;;
595;SDS011;19946;49.306;11.350;2022-11-25T11:53:30;33.10;;;31.00;;
595;SDS011;19946;49.306;11.350;2022-11-25T11:56:58;34.53;;;32.43;;
595;SDS011;19946;49.306;11.350;2022-11-25T12:00:12;33.10;;;31.10;;
595;SDS011;19946;49.306;11.350;2022-11-25T12:03:26;34.40;;;32.30;;
595;SDS011;19946;49.306;11.350;2022-11-25T12:06:30;34.30;;;32.20;;
595;SDS011;19946;49.306;11.350;2022-11-25T12:09:36;33.20;;;31.20;;
595;SDS011;19946;49.306;11.350;2022-11-25T12:19:32;33.80;;;31.70;;
595;SDS011;19946;49.306;11.350;2022-11-25T12:22:46;33.90;;;31.80;;
595;SDS011;19946;49.306;11.350;2022-11-25T12:25:53;34.10;;;32.00;;
595;SDS011;19946;49.306;11.350;2022-11-25T12:29:02;35.30;;;33.10;;
595;SDS011;19946;49.306;11.350;2022-11-25T12:32:10;34.53;;;32.43;;
595;SDS011;19946;49.306;11.350;2022-11-25T12:41:53;37.00;;;34.70;;
595;SDS011;19946;49.306;11.350;2022-11-25T12:45:04;37.90;;;35.50;;
595;SDS011;19946;49.306;11.350;2022-11-25T12:48:07;38.03;;;35.73;;
595;SDS011;19946;49.306;11.350;2022-11-25T13:08:05;36.10;;;33.80;;
595;SDS011;19946;49.306;11.350;2022-11-25T13:18:02;35.33;;;33.23;;
595;SDS011;19946;49.306;11.350;2022-11-25T13:21:10;37.20;;;35.00;;
595;SDS011;19946;49.306;11.350;2022-11-25T13:30:39;33.00;;;31.10;;
595;SDS011;19946;49.306;11.350;2022-11-25T13:36:44;35.30;;;33.20;;
595;SDS011;19946;49.306;11.350;2022-11-25T13:39:49;54.93;;;52.13;;
595;SDS011;19946;49.306;11.350;2022-11-25T13:43:25;40.77;;;38.43;;
595;SDS011;19946;49.306;11.350;2022-11-25T13:46:28;52.73;;;49.83;;
595;SDS011;19946;49.306;11.350;2022-11-25T13:49:59;52.03;;;49.33;;
595;SDS011;19946;49.306;11.350;2022-11-25T13:53:04;64.20;;;61.00;;
595;SDS011;19946;49.306;11.350;2022-11-25T13:59:36;106.23;;;101.63;;
595;SDS011;19946;49.306;11.350;2022-11-25T14:03:38;160.10;;;153.53;;
595;SDS011;19946;49.306;11.350;2022-11-25T14:06:23;190.53;;;182.87;;
595;SDS011;19946;49.306;11.350;2022-11-25T14:09:32;264.83;;;255.23;;
595;SDS011;19946;49.306;11.350;2022-11-25T14:26:32;494.40;;;476.73;;
595;SDS011;19946;49.306;11.350;2022-11-25T14:33:33;467.10;;;450.20;;
595;SDS011;19946;49.306;11.350;2022-11-25T14:44:12;380.87;;;367.17;;
595;SDS011;19946;49.306;11.350;2022-11-25T14:50:57;452.53;;;436.23;;
595;SDS011;19946;49.306;11.350;2022-11-25T14:54:00;504.77;;;486.97;;
595;SDS011;19946;49.306;11.350;2022-11-25T14:57:00;505.83;;;487.83;;
595;SDS011;19946;49.306;11.350;2022-11-25T15:00:11;489.20;;;471.70;;
595;SDS011;19946;49.306;11.350;2022-11-25T15:03:18;545.23;;;525.97;;
595;SDS011;19946;49.306;11.350;2022-11-25T15:06:19;522.03;;;502.90;;
595;SDS011;19946;49.306;11.350;2022-11-25T15:09:31;489.47;;;472.47;;
595;SDS011;19946;49.306;11.350;2022-11-25T15:12:37;459.03;;;442.93;;
595;SDS011;19946;49.306;11.350;2022-11-25T15:15:38;451.47;;;435.57;;
595;SDS011;19946;49.306;11.350;2022-11-25T15:22:22;444.50;;;428.70;;
595;SDS011;19946;49.306;11.350;2022-11-25T15:25:22;458.57;;;442.43;;
595;SDS011;19946;49.306;11.350;2022-11-25T15:28:23;454.03;;;437.93;;
595;SDS011;19946;49.306;11.350;2022-11-25T15:31:30;487.40;;;470.33;;
595;SDS011;19946;49.306;11.350;2022-11-25T15:34:32;501.33;;;483.93;;
595;SDS011;19946;49.306;11.350;2022-11-25T15:37:32;482.30;;;465.40;;
595;SDS011;19946;49.306;11.350;2022-11-25T15:40:39;458.07;;;441.87;;
595;SDS011;19946;49.306;11.350;2022-11-25T15:43:43;457.20;;;441.10;;
595;SDS011;19946;49.306;11.350;2022-11-25T15:46:52;454.67;;;438.27;;
595;SDS011;19946;49.306;11.350;2022-11-25T15:50:04;389.70;;;376.10;;
595;SDS011;19946;49.306;11.350;2022-11-25T15:57:27;317.67;;;306.33;;
595;SDS011;19946;49.306;11.350;2022-11-25T16:00:30;328.60;;;317.10;;
595;SDS011;19946;49.306;11.350;2022-11-25T16:03:33;311.33;;;300.33;;
595;SDS011;19946;49.306;11.350;2022-11-25T16:06:34;363.30;;;350.77;;
595;SDS011;19946;49.306;11.350;2022-11-25T16:09:34;349.50;;;337.40;;
595;SDS011;19946;49.306;11.350;2022-11-25T16:12:35;358.80;;;346.30;;
595;SDS011;19946;49.306;11.350;2022-11-25T16:22:12;459.30;;;443.20;;
595;SDS011;19946;49.306;11.350;2022-11-25T16:25:16;508.60;;;491.33;;
595;SDS011;19946;49.306;11.350;2022-11-25T16:28:20;530.73;;;512.53;;
595;SDS011;19946;49.306;11.350;2022-11-25T16:31:21;519.70;;;501.93;;
595;SDS011;19946;49.306;11.350;2022-11-25T16:34:22;532.70;;;514.13;;
595;SDS011;19946;49.306;11.350;2022-11-25T16:37:27;513.73;;;496.17;;
595;SDS011;19946;49.306;11.350;2022-11-25T16:40:27;508.47;;;491.07;;
595;SDS011;19946;49.306;11.350;2022-11-25T16:43:29;421.43;;;406.97;;
595;SDS011;19946;49.306;11.350;2022-11-25T16:46:30;509.73;;;492.13;;
595;SDS011;19946;49.306;11.350;2022-11-25T16:49:30;487.97;;;471.23;;
595;SDS011;19946;49.306;11.350;2022-11-25T16:52:31;436.87;;;421.60;;
595;SDS011;19946;49.306;11.350;2022-11-25T16:55:31;459.17;;;443.10;;
595;SDS011;19946;49.306;11.350;2022-11-25T16:58:32;471.47;;;454.77;;
595;SDS011;19946;49.306;11.350;2022-11-25T17:01:33;648.63;;;625.43;;
595;SDS011;19946;49.306;11.350;2022-11-25T17:04:34;597.57;;;576.43;;
595;SDS011;19946;49.306;11.350;2022-11-25T17:07:35;616.23;;;594.23;;
595;SDS011;19946;49.306;11.350;2022-11-25T17:10:37;593.50;;;572.43;;
595;SDS011;19946;49.306;11.350;2022-11-25T17:13:38;632.37;;;609.97;;
595;SDS011;19946;49.306;11.350;2022-11-25T17:16:45;567.50;;;547.93;;
595;SDS011;19946;49.306;11.350;2022-11-25T17:19:45;551.17;;;532.20;;
595;SDS011;19946;49.306;11.350;2022-11-25T17:22:46;495.73;;;478.73;;
595;SDS011;19946;49.306;11.350;2022-11-25T17:25:46;416.53;;;402.17;;
595;SDS011;19946;49.306;11.350;2022-11-25T17:28:58;462.17;;;446.33;;
595;SDS011;19946;49.306;11.350;2022-11-25T17:32:03;475.67;;;459.37;;
595;SDS011;19946;49.306;11.350;2022-11-25T17:35:08;475.07;;;458.93;;
595;SDS011;19946;49.306;11.350;2022-11-25T17:38:21;520.17;;;502.27;;
595;SDS011;19946;49.306;11.350;2022-11-25T17:41:23;481.23;;;465.03;;
595;SDS011;19946;49.306;11.350;2022-11-25T17:44:27;506.83;;;489.63;;
595;SDS011;19946;49.306;11.350;2022-11-25T17:47:28;526.80;;;508.97;;
595;SDS011;19946;49.306;11.350;2022-11-25T17:50:28;540.97;;;522.80;;
595;SDS011;19946;49.306;11.350;2022-11-25T17:53:29;558.80;;;539.77;;
595;SDS011;19946;49.306;11.350;2022-11-25T17:56:29;532.90;;;514.60;;
595;SDS011;19946;49.306;11.350;2022-11-25T17:59:31;548.57;;;529.67;;
595;SDS011;19946;49.306;11.350;2022-11-25T18:02:32;527.30;;;509.40;;
595;SDS011;19946;49.306;11.350;2022-11-25T18:05:33;445.03;;;429.73;;
595;SDS011;19946;49.306;11.350;2022-11-25T18:08:43;498.30;;;481.30;;
595;SDS011;19946;49.306;11.350;2022-11-25T18:11:45;550.57;;;531.90;;
595;SDS011;19946;49.306;11.350;2022-11-25T18:14:48;494.60;;;477.50;;
595;SDS011;19946;49.306;11.350;2022-11-25T18:17:49;473.40;;;457.27;;
595;SDS011;19946;49.306;11.350;2022-11-25T18:20:55;432.17;;;417.27;;
595;SDS011;19946;49.306;11.350;2022-11-25T18:23:56;403.87;;;389.67;;
595;SDS011;19946;49.306;11.350;2022-11-25T18:27:09;406.30;;;391.90;;
595;SDS011;19946;49.306;11.350;2022-11-25T18:30:22;478.37;;;461.57;;
595;SDS011;19946;49.306;11.350;2022-11-25T18:33:24;539.90;;;521.20;;
595;SDS011;19946;49.306;11.350;2022-11-25T18:36:24;458.90;;;442.90;;
595;SDS011;19946;49.306;11.350;2022-11-25T18:39:27;372.53;;;359.53;;
595;SDS011;19946;49.306;11.350;2022-11-25T18:42:27;399.33;;;385.47;;
595;SDS011;19946;49.306;11.350;2022-11-25T18:45:31;362.90;;;350.20;;
595;SDS011;19946;49.306;11.350;2022-11-25T18:48:33;380.20;;;366.93;;
595;SDS011;19946;49.306;11.350;2022-11-25T18:51:34;358.97;;;346.47;;
595;SDS011;19946;49.306;11.350;2022-11-25T18:54:36;392.60;;;379.00;;
595;SDS011;19946;49.306;11.350;2022-11-25T18:57:36;408.70;;;394.47;;
595;SDS011;19946;49.306;11.350;2022-11-25T19:00:44;456.90;;;441.00;;
595;SDS011;19946;49.306;11.350;2022-11-25T19:03:58;429.57;;;414.47;;
595;SDS011;19946;49.306;11.350;2022-11-25T19:06:59;467.20;;;450.83;;
595;SDS011;19946;49.306;11.350;2022-11-25T19:13:32;404.70;;;390.47;;
595;SDS011;19946;49.306;11.350;2022-11-25T19:16:48;373.93;;;360.77;;
595;SDS011;19946;49.306;11.350;2022-11-25T19:19:49;359.83;;;347.33;;
595;SDS011;19946;49.306;11.350;2022-11-25T19:22:49;299.67;;;289.17;;
595;SDS011;19946;49.306;11.350;2022-11-25T19:28:59;285.13;;;275.00;;
595;SDS011;19946;49.306;11.350;2022-11-25T19:32:02;309.47;;;298.57;;
595;SDS011;19946;49.306;11.350;2022-11-25T19:35:07;443.13;;;427.53;;
595;SDS011;19946;49.306;11.350;2022-11-25T19:38:15;370.27;;;357.37;;
595;SDS011;19946;49.306;11.350;2022-11-25T19:41:29;325.73;;;314.27;;
595;SDS011;19946;49.306;11.350;2022-11-25T19:44:31;373.43;;;360.40;;
595;SDS011;19946;49.306;11.350;2022-11-25T19:47:32;330.33;;;318.73;;
595;SDS011;19946;49.306;11.350;2022-11-25T19:50:33;329.20;;;317.57;;
595;SDS011;19946;49.306;11.350;2022-11-25T19:53:43;385.43;;;371.77;;
595;SDS011;19946;49.306;11.350;2022-11-25T19:57:00;288.93;;;278.57;;
595;SDS011;19946;49.306;11.350;2022-11-25T20:00:06;298.63;;;287.97;;
595;SDS011;19946;49.306;11.350;2022-11-25T20:03:22;364.73;;;352.00;;
595;SDS011;19946;49.306;11.350;2022-11-25T20:06:38;331.47;;;319.97;;
595;SDS011;19946;49.306;11.350;2022-11-25T20:12:43;354.10;;;341.73;;
595;SDS011;19946;49.306;11.350;2022-11-25T20:15:48;384.33;;;370.83;;
595;SDS011;19946;49.306;11.350;2022-11-25T20:18:50;394.00;;;380.43;;
595;SDS011;19946;49.306;11.350;2022-11-25T20:25:30;394.83;;;381.23;;
595;SDS011;19946;49.306;11.350;2022-11-25T20:28:36;297.77;;;287.33;;
595;SDS011;19946;49.306;11.350;2022-11-25T20:31:42;346.17;;;334.07;;
595;SDS011;19946;49.306;11.350;2022-11-25T20:38:08;518.27;;;500.23;;
595;SDS011;19946;49.306;11.350;2022-11-25T20:41:17;441.63;;;426.07;;
595;SDS011;19946;49.306;11.350;2022-11-25T20:44:19;488.80;;;471.53;;
595;SDS011;19946;49.306;11.350;2022-11-25T20:47:20;440.47;;;424.57;;
595;SDS011;19946;49.306;11.350;2022-11-25T20:50:20;305.17;;;294.07;;
595;SDS011;19946;49.306;11.350;2022-11-25T20:56:40;399.50;;;384.70;;
595;SDS011;19946;49.306;11.350;2022-11-25T20:59:41;375.43;;;361.33;;
595;SDS011;19946;49.306;11.350;2022-11-25T21:02:43;509.90;;;490.90;;
595;SDS011;19946;49.306;11.350;2022-11-25T21:05:44;456.23;;;439.20;;
595;SDS011;19946;49.306;11.350;2022-11-25T21:08:46;521.90;;;502.50;;
595;SDS011;19946;49.306;11.350;2022-11-25T21:11:48;488.00;;;469.73;;
595;SDS011;19946;49.306;11.350;2022-11-25T21:14:48;525.10;;;505.57;;
595;SDS011;19946;49.306;11.350;2022-11-25T21:17:49;620.83;;;597.83;;
595;SDS011;19946;49.306;11.350;2022-11-25T21:20:52;603.00;;;580.77;;
595;SDS011;19946;49.306;11.350;2022-11-25T21:23:54;631.70;;;608.43;;
595;SDS011;19946;49.306;11.350;2022-11-25T21:30:34;692.60;;;667.40;;
595;SDS011;19946;49.306;11.350;2022-11-25T21:33:35;739.10;;;712.53;;
595;SDS011;19946;49.306;11.350;2022-11-25T21:36:35;715.90;;;690.07;;
595;SDS011;19946;49.306;11.350;2022-11-25T21:39:37;786.50;;;757.93;;
595;SDS011;19946;49.306;11.350;2022-11-25T21:42:38;793.43;;;764.53;;
595;SDS011;19946;49.306;11.350;2022-11-25T21:45:46;759.13;;;732.03;;
595;SDS011;19946;49.306;11.350;2022-11-25T21:48:48;795.97;;;766.93;;
595;SDS011;19946;49.306;11.350;2022-11-25T21:51:48;773.13;;;744.67;;
595;SDS011;19946;49.306;11.350;2022-11-25T21:58:20;629.63;;;608.33;;
595;SDS011;19946;49.306;11.350;2022-11-25T22:01:24;624.00;;;602.90;;
595;SDS011;19946;49.306;11.350;2022-11-25T22:04:39;633.23;;;611.83;;
595;SDS011;19946;49.306;11.350;2022-11-25T22:07:39;651.70;;;629.20;;
595;SDS011;19946;49.306;11.350;2022-11-25T22:10:42;715.43;;;690.03;;
595;SDS011;19946;49.306;11.350;2022-11-25T22:13:45;709.60;;;684.67;;
595;SDS011;19946;49.306;11.350;2022-11-25T22:16:47;728.27;;;702.20;;
595;SDS011;19946;49.306;11.350;2022-11-25T22:19:48;722.00;;;696.40;;
595;SDS011;19946;49.306;11.350;2022-11-25T22:22:48;714.30;;;688.90;;
595;SDS011;19946;49.306;11.350;2022-11-25T22:25:57;701.60;;;677.00;;
595;SDS011;19946;49.306;11.350;2022-11-25T22:28:58;693.60;;;669.40;;
595;SDS011;19946;49.306;11.350;2022-11-25T22:32:00;698.70;;;674.10;;
595;SDS011;19946;49.306;11.350;2022-11-25T22:35:12;694.00;;;669.60;;
595;SDS011;19946;49.306;11.350;2022-11-25T22:38:17;699.33;;;674.83;;
595;SDS011;19946;49.306;11.350;2022-11-25T22:41:18;692.13;;;668.23;;
595;SDS011;19946;49.306;11.350;2022-11-25T22:44:22;609.97;;;589.10;;
595;SDS011;19946;49.306;11.350;2022-11-25T22:50:39;561.00;;;542.00;;
595;SDS011;19946;49.306;11.350;2022-11-25T22:53:39;614.50;;;593.10;;
595;SDS011;19946;49.306;11.350;2022-11-25T22:56:54;592.10;;;571.17;;
595;SDS011;19946;49.306;11.350;2022-11-25T22:59:55;660.23;;;636.33;;
595;SDS011;19946;49.306;11.350;2022-11-25T23:02:58;690.50;;;665.77;;
595;SDS011;19946;49.306;11.350;2022-11-25T23:05:59;652.40;;;629.40;;
595;SDS011;19946;49.306;11.350;2022-11-25T23:09:01;621.90;;;600.10;;
595;SDS011;19946;49.306;11.350;2022-11-25T23:12:16;700.67;;;675.77;;